aviador You're here:

CYYL Decoded Metar

LYNN LAKE in MB, CANADA
Report Time2018-05-27 01:00:00
UTC Time2018-05-27 01:19:19
Flight Rules vfr VFR
Wind230° at 05 kt
W.Decomp.*RWY 26: 3.9 kt HW 3.1 kt LCW
RWY 17: 3.1 kt HW 3.9 kt RCW
W.Rank230° ranks 13
Current wind is below 230° avg. (6.6)
Visibility9999 m
Phenomena:N/A
Clouds:Scattered 032 Hf
Expected CloudBase > 2,400 ft AGL from Temp-Dew spread
CeilingNone
Temp16°C (ISA +3)
Dew Point10°C (68% RH)
AAT14.3°C
QNH1002 hPa
Density Alt2,106 ft
Elevation1,171 ft
Report Wrong Elevation
Raw Report
CYYL 270100Z AUTO 23005KT 9SM SCT032 16/10 A2960 RMK SLP035
DENSITY ALT 1900FT=

Extra information for CYYL:More info

Metar Taf Metar & Taf Last 4 Metars F.Rules Stats Wind Profile Meteogram Temp Stats Airport Information Weather charts Add Link Nearby VenuesMetar ALERT Operation Metar Decoded Social comments